Time;durP1;ratioP1;P1;durP2;ratioP2;P2;SDS_P1;SDS_P2;PMS_P1;PMS_P2;Temp;Humidity;BMP_temperature;BMP_pressure;BME280_temperature;BME280_humidity;BME280_pressure;Samples;Min_cycle;Max_cycle;Signal;HPM_P1;HPM_P2
2023/01/25 00:00:02;;;;;;;38.40;23.90;;;;;;;1.33;86.35;102175.00;103459;1251;109809;-72
2023/01/25 00:02:50;;;;;;;41.40;24.50;;;;;;;1.31;86.25;102171.86;103267;1255;107895;-72
2023/01/25 00:05:17;;;;;;;41.00;23.90;;;;;;;1.29;86.03;102168.88;102553;1256;1002883;-71
2023/01/25 00:07:44;;;;;;;38.30;23.60;;;;;;;1.29;85.95;102171.45;103470;1251;109220;-72
2023/01/25 00:10:12;;;;;;;38.80;23.50;;;;;;;1.28;85.75;102173.48;103268;1253;139629;-70
2023/01/25 00:12:39;;;;;;;35.90;23.10;;;;;;;1.26;85.58;102175.29;104089;1254;110203;-70
2023/01/25 00:15:08;;;;;;;35.60;22.70;;;;;;;1.24;85.47;102178.61;102649;1253;1004062;-69
2023/01/25 00:17:36;;;;;;;34.60;22.20;;;;;;;1.21;85.22;102176.98;103699;1251;139360;-69
2023/01/25 00:20:03;;;;;;;33.80;21.30;;;;;;;1.18;85.08;102175.85;103420;1255;107297;-70
2023/01/25 00:22:30;;;;;;;37.00;23.40;;;;;;;1.16;84.79;102184.35;103290;1256;139302;-71
2023/01/25 00:24:58;;;;;;;32.60;21.80;;;;;;;1.15;84.71;102178.99;103412;1254;110992;-72
2023/01/25 00:27:25;;;;;;;32.40;21.30;;;;;;;1.13;84.37;102169.32;103361;1256;107451;-71
2023/01/25 00:29:53;;;;;;;33.00;20.90;;;;;;;1.12;84.28;102163.11;103233;1253;138480;-72
2023/01/25 00:32:58;;;;;;;30.60;21.30;;;;;;;1.11;84.19;102156.05;103365;1252;108221;-71
2023/01/25 00:35:30;;;;;;;28.00;19.20;;;;;;;1.08;83.69;102159.03;103767;1251;139721;-70
2023/01/25 00:38:00;;;;;;;28.60;19.00;;;;;;;1.05;83.66;102160.94;103407;1253;110847;-70
2023/01/25 00:40:28;;;;;;;31.30;19.20;;;;;;;1.03;83.74;102161.58;103283;1256;138592;-71
2023/01/25 00:42:59;;;;;;;31.30;19.50;;;;;;;1.03;83.71;102157.44;102631;1256;1003629;-72
2023/01/25 00:45:26;;;;;;;32.00;21.00;;;;;;;1.02;83.65;102156.04;103435;1256;107191;-71
2023/01/25 00:47:57;;;;;;;31.80;21.00;;;;;;;1.01;83.69;102157.55;103368;1253;139237;-71
2023/01/25 00:50:24;;;;;;;32.40;21.60;;;;;;;1.01;83.67;102150.00;103344;1253;109720;-71
2023/01/25 00:52:51;;;;;;;32.30;20.80;;;;;;;1.00;83.67;102144.31;103272;1253;139519;-71
2023/01/25 00:55:18;;;;;;;33.20;22.00;;;;;;;0.99;83.72;102141.38;103382;1256;96373;-71
2023/01/25 00:57:47;;;;;;;35.70;21.70;;;;;;;0.99;83.70;102140.85;103311;1256;141319;-71
2023/01/25 01:00:16;;;;;;;34.30;22.20;;;;;;;0.98;83.72;102138.09;103377;1253;96614;-71
2023/01/25 01:02:45;;;;;;;34.30;22.10;;;;;;;0.96;83.59;102135.29;103698;1257;111534;-71
2023/01/25 01:05:14;;;;;;;30.00;20.30;;;;;;;0.96;83.61;102139.56;103718;1255;138351;-71
2023/01/25 01:07:42;;;;;;;33.30;21.70;;;;;;;0.96;83.61;102136.63;103411;1251;96622;-70
2023/01/25 01:10:12;;;;;;;31.40;19.90;;;;;;;0.96;83.27;102139.23;103282;1256;139603;-71
2023/01/25 01:12:39;;;;;;;30.50;20.20;;;;;;;0.93;83.15;102135.34;103459;1256;96440;-70
2023/01/25 01:15:08;;;;;;;30.10;18.60;;;;;;;0.91;83.22;102131.48;103405;1255;112669;-71
2023/01/25 01:17:35;;;;;;;27.10;18.50;;;;;;;0.90;83.00;102130.95;103541;1254;138449;-70
2023/01/25 01:20:02;;;;;;;26.10;17.40;;;;;;;0.88;82.98;102131.54;103336;1255;96446;-71
2023/01/25 01:22:29;;;;;;;28.30;19.30;;;;;;;0.86;82.74;102128.06;102538;1256;1003076;-70
2023/01/25 01:24:56;;;;;;;27.90;17.80;;;;;;;0.84;82.77;102124.55;103309;1256;96449;-70
2023/01/25 01:27:23;;;;;;;27.30;17.50;;;;;;;0.83;82.69;102130.66;103335;1257;109635;-71
2023/01/25 01:29:50;;;;;;;24.20;16.90;;;;;;;0.81;82.41;102133.84;103286;1256;139993;-70
2023/01/25 01:32:18;;;;;;;23.70;16.10;;;;;;;0.78;82.35;102134.42;103299;1257;96465;-69
2023/01/25 01:34:45;;;;;;;24.50;17.00;;;;;;;0.76;82.31;102135.55;103290;1256;138388;-70
2023/01/25 01:37:12;;;;;;;25.10;16.60;;;;;;;0.73;82.27;102132.52;102568;1256;1003075;-70
2023/01/25 01:39:40;;;;;;;24.30;16.70;;;;;;;0.70;82.25;102130.01;103360;1255;110602;-70
2023/01/25 01:42:07;;;;;;;21.20;15.40;;;;;;;0.68;81.92;102123.59;103340;1256;106811;-70
2023/01/25 01:44:49;;;;;;;22.30;14.80;;;;;;;0.65;81.80;102120.57;103346;1256;96456;-70
2023/01/25 01:47:21;;;;;;;20.80;14.40;;;;;;;0.61;81.69;102118.21;103141;1256;138199;-70
2023/01/25 01:49:54;;;;;;;24.30;15.80;;;;;;;0.59;81.56;102117.43;102557;1257;1002975;-70
2023/01/25 01:52:27;;;;;;;23.80;15.50;;;;;;;0.55;81.57;102117.48;102455;1251;1003137;-70
2023/01/25 01:55:00;;;;;;;24.60;15.70;;;;;;;0.53;81.69;102117.75;102628;1257;1003002;-71
2023/01/25 01:57:35;;;;;;;23.50;16.00;;;;;;;0.53;81.69;102118.58;103275;1256;96508;-71
2023/01/25 02:00:05;;;;;;;21.70;15.80;;;;;;;0.53;81.76;102119.96;103213;1256;139969;-70
2023/01/25 02:02:38;;;;;;;23.60;16.20;;;;;;;0.54;81.78;102119.81;102644;1256;1002585;-70
2023/01/25 02:05:11;;;;;;;25.10;16.50;;;;;;;0.54;81.74;102119.51;103284;1257;138709;-70
2023/01/25 02:07:40;;;;;;;24.00;16.10;;;;;;;0.54;81.73;102118.14;103389;1251;106504;-70
2023/01/25 02:10:11;;;;;;;27.40;16.60;;;;;;;0.55;81.73;102115.59;103284;1257;139322;-71
2023/01/25 02:12:41;;;;;;;23.10;15.60;;;;;;;0.54;81.62;102110.91;103415;1259;107472;-71
2023/01/25 02:15:10;;;;;;;23.00;14.90;;;;;;;0.52;81.46;102109.46;102559;1254;1003750;-71
2023/01/25 02:17:39;;;;;;;22.60;15.50;;;;;;;0.48;81.37;102105.88;103321;1257;138839;-71
2023/01/25 02:20:16;;;;;;;21.30;14.90;;;;;;;0.45;81.40;102102.19;103084;1254;348573;-71
2023/01/25 02:22:49;;;;;;;22.90;15.40;;;;;;;0.45;81.71;102101.34;103286;1251;140968;-72
2023/01/25 02:25:18;;;;;;;24.80;16.20;;;;;;;0.46;81.55;102098.10;103291;1256;108372;-71
2023/01/25 02:27:50;;;;;;;25.90;16.00;;;;;;;0.45;81.37;102099.11;103580;1257;138992;-71
2023/01/25 02:30:18;;;;;;;23.20;16.00;;;;;;;0.44;81.42;102095.81;103309;1256;109214;-71
2023/01/25 02:32:45;;;;;;;22.70;15.40;;;;;;;0.43;81.20;102090.64;103348;1257;109432;-71
2023/01/25 02:35:20;;;;;;;23.60;15.90;;;;;;;0.41;81.16;102089.38;103263;1260;138465;-71
2023/01/25 02:37:48;;;;;;;22.70;15.70;;;;;;;0.38;81.03;102089.25;103350;1256;108158;-71
2023/01/25 02:40:17;;;;;;;20.30;14.40;;;;;;;0.34;80.97;102088.05;103334;1256;138717;-71
2023/01/25 02:42:46;;;;;;;21.60;15.20;;;;;;;0.31;80.87;102084.67;103346;1251;109288;-71
2023/01/25 02:45:18;;;;;;;22.90;15.40;;;;;;;0.29;80.96;102085.33;102467;1255;1003021;-71
2023/01/25 02:47:47;;;;;;;21.70;15.30;;;;;;;0.30;81.05;102083.95;103171;1256;138761;-71
2023/01/25 02:50:15;;;;;;;22.70;15.10;;;;;;;0.30;81.03;102085.18;103288;1251;106956;-71
2023/01/25 02:52:42;;;;;;;20.80;14.80;;;;;;;0.29;80.91;102079.98;103303;1255;138332;-73
2023/01/25 02:55:11;;;;;;;23.20;15.70;;;;;;;0.27;80.93;102074.77;103423;1257;108973;-70
2023/01/25 02:57:40;;;;;;;22.70;16.20;;;;;;;0.26;81.01;102075.43;103707;1254;108651;-70
2023/01/25 03:00:10;;;;;;;21.90;15.10;;;;;;;0.25;80.86;102078.67;103468;1251;96328;-70
2023/01/25 03:02:38;;;;;;;22.00;14.20;;;;;;;0.24;80.94;102076.91;103527;1256;106559;-70
2023/01/25 03:05:06;;;;;;;22.10;15.10;;;;;;;0.21;80.80;102071.50;103549;1251;138328;-70
2023/01/25 03:07:34;;;;;;;20.00;13.70;;;;;;;0.21;80.81;102068.04;103435;1257;109269;-70
2023/01/25 03:10:02;;;;;;;21.20;14.20;;;;;;;0.20;80.75;102064.94;103327;1255;138457;-71
2023/01/25 03:12:29;;;;;;;22.70;15.00;;;;;;;0.17;80.77;102058.33;102559;1256;1002727;-71
2023/01/25 03:14:57;;;;;;;20.80;14.20;;;;;;;0.18;80.94;102053.53;103304;1257;106941;-70
2023/01/25 03:17:25;;;;;;;21.70;13.90;;;;;;;0.17;80.74;102046.34;103197;1257;141020;-71
2023/01/25 03:19:52;;;;;;;19.40;12.90;;;;;;;0.14;80.56;102047.23;103295;1251;109946;-70
2023/01/25 03:22:20;;;;;;;22.80;13.80;;;;;;;0.10;80.49;102045.89;103197;1254;138506;-71
2023/01/25 03:24:48;;;;;;;19.40;14.10;;;;;;;0.06;80.35;102043.36;103451;1251;96442;-71
2023/01/25 03:27:17;;;;;;;20.30;14.30;;;;;;;0.04;80.54;102040.19;103351;1251;106783;-70
2023/01/25 03:30:00;;;;;;;23.00;13.60;;;;;;;0.02;80.56;102039.77;103258;1251;139241;-71
2023/01/25 03:32:30;;;;;;;23.60;14.30;;;;;;;0.01;80.57;102039.40;103434;1251;111118;-71
2023/01/25 03:35:01;;;;;;;21.00;13.40;;;;;;;0.02;80.72;102038.41;102523;1254;1003027;-70
2023/01/25 03:37:30;;;;;;;21.20;12.50;;;;;;;0.02;80.76;102032.77;103434;1257;96706;-70
2023/01/25 03:39:57;;;;;;;19.00;12.40;;;;;;;0.00;80.60;102029.45;102522;1251;1003524;-70
2023/01/25 03:42:25;;;;;;;17.60;11.20;;;;;;;-0.02;80.38;102027.13;103360;1251;97143;-70
2023/01/25 03:44:55;;;;;;;14.70;10.10;;;;;;;-0.02;80.44;102025.57;103427;1257;109629;-70
2023/01/25 03:47:22;;;;;;;12.50;9.00;;;;;;;-0.02;80.42;102029.85;103244;1256;138889;-70
2023/01/25 03:49:49;;;;;;;12.60;9.20;;;;;;;-0.04;80.23;102026.35;103359;1256;97047;-70
2023/01/25 03:52:17;;;;;;;14.90;10.00;;;;;;;-0.08;80.20;102015.77;103232;1251;138346;-70
2023/01/25 03:54:45;;;;;;;16.00;10.70;;;;;;;-0.10;80.20;102015.04;103380;1257;96456;-70
2023/01/25 03:57:12;;;;;;;14.70;10.00;;;;;;;-0.13;80.35;102020.91;103364;1256;110264;-70
2023/01/25 03:59:56;;;;;;;14.10;10.20;;;;;;;-0.12;80.57;102029.31;102404;1254;1002991;-70
2023/01/25 04:02:23;;;;;;;14.20;9.70;;;;;;;-0.14;80.01;102009.92;103424;1256;96434;-70
2023/01/25 04:04:51;;;;;;;14.60;10.00;;;;;;;-0.18;79.96;102010.95;102547;1251;1002724;-70
2023/01/25 04:07:20;;;;;;;15.70;10.00;;;;;;;-0.21;79.98;102006.36;103389;1257;96431;-70
2023/01/25 04:09:49;;;;;;;14.10;10.20;;;;;;;-0.24;80.09;102017.54;103314;1251;138505;-69
2023/01/25 04:12:16;;;;;;;16.60;10.70;;;;;;;-0.25;79.98;102011.33;103354;1264;107205;-70
2023/01/25 04:14:43;;;;;;;14.90;10.30;;;;;;;-0.28;79.96;102015.15;103441;1255;96436;-69
2023/01/25 04:17:20;;;;;;;16.20;10.70;;;;;;;-0.30;79.88;102005.17;103333;1251;138617;-70
2023/01/25 04:19:51;;;;;;;15.80;11.80;;;;;;;-0.31;79.94;102004.27;103535;1254;96463;-70
2023/01/25 04:22:20;;;;;;;16.00;10.60;;;;;;;-0.32;79.98;102004.06;103326;1251;140066;-70
2023/01/25 04:24:48;;;;;;;16.20;11.40;;;;;;;-0.34;79.88;102009.98;103408;1251;110366;-70
2023/01/25 04:27:15;;;;;;;18.60;12.60;;;;;;;-0.35;79.94;102006.83;101903;1254;1003754;-71
2023/01/25 04:29:51;;;;;;;20.30;14.50;;;;;;;-0.37;80.20;101999.21;103313;1257;140006;-70
2023/01/25 04:32:18;;;;;;;22.30;13.90;;;;;;;-0.38;80.29;102003.11;103478;1251;96418;-72
2023/01/25 04:34:46;;;;;;;23.30;15.60;;;;;;;-0.38;80.21;102000.70;103285;1251;138390;-71
2023/01/25 04:37:15;;;;;;;28.90;18.20;;;;;;;-0.38;80.34;101997.11;103245;1253;106515;-71
2023/01/25 04:39:49;;;;;;;29.60;20.50;;;;;;;-0.39;80.56;101994.86;103162;1257;138585;-71
2023/01/25 04:42:17;;;;;;;30.90;22.10;;;;;;;-0.40;80.54;101987.14;103260;1251;107918;-71
2023/01/25 04:44:45;;;;;;;30.60;21.70;;;;;;;-0.41;80.61;101993.42;103388;1257;96451;-71
2023/01/25 04:47:12;;;;;;;33.30;22.90;;;;;;;-0.43;80.68;101993.19;102569;1251;1003336;-71
2023/01/25 04:49:39;;;;;;;33.40;23.10;;;;;;;-0.43;80.78;101990.61;103446;1251;106615;-71
2023/01/25 04:52:09;;;;;;;38.20;24.70;;;;;;;-0.44;80.73;101989.90;103172;1264;138608;-71
2023/01/25 04:54:36;;;;;;;34.30;22.80;;;;;;;-0.42;80.96;101985.69;103280;1257;106898;-71
2023/01/25 04:57:04;;;;;;;37.00;23.50;;;;;;;-0.43;80.83;101992.00;103354;1256;96405;-71
2023/01/25 04:59:31;;;;;;;36.20;22.90;;;;;;;-0.42;80.86;101990.30;103224;1257;139107;-71
2023/01/25 05:01:58;;;;;;;37.20;25.60;;;;;;;-0.42;80.86;101990.48;102450;1251;1003431;-71
2023/01/25 05:04:27;;;;;;;38.60;25.00;;;;;;;-0.42;80.92;101988.77;103234;1251;138800;-70
2023/01/25 05:06:54;;;;;;;39.20;25.20;;;;;;;-0.43;80.82;101987.70;103211;1254;107385;-72
2023/01/25 05:09:21;;;;;;;40.20;26.40;;;;;;;-0.49;80.58;101991.91;103194;1257;96362;-72
2023/01/25 05:11:48;;;;;;;37.40;25.20;;;;;;;-0.51;80.91;101993.52;102416;1251;1002662;-71
2023/01/25 05:14:31;;;;;;;39.00;25.60;;;;;;;-0.51;80.96;101994.55;104694;1251;108287;-71
2023/01/25 05:16:59;;;;;;;38.50;25.90;;;;;;;-0.53;80.88;101992.75;104612;1250;138443;-71
2023/01/25 05:19:26;;;;;;;40.20;25.10;;;;;;;-0.53;81.01;101990.89;104722;1254;107851;-72
2023/01/25 05:21:58;;;;;;;40.80;25.60;;;;;;;-0.54;80.91;101989.46;104581;1251;138690;-69
2023/01/25 05:24:32;;;;;;;40.50;25.70;;;;;;;-0.55;80.87;101986.68;104639;1251;110023;-70
2023/01/25 05:27:06;;;;;;;35.00;24.20;;;;;;;-0.56;81.02;101982.39;104656;1254;108305;-70
2023/01/25 05:29:59;;;;;;;38.20;24.50;;;;;;;-0.56;80.98;101979.80;103100;1255;1002647;-72
2023/01/25 05:32:56;;;;;;;36.50;24.90;;;;;;;-0.57;80.74;101978.94;103296;1255;109591;-72
2023/01/25 05:35:23;;;;;;;38.20;26.20;;;;;;;-0.58;80.95;101979.58;103284;1256;140670;-72
2023/01/25 05:37:55;;;;;;;40.30;26.20;;;;;;;-0.57;80.90;101980.79;102793;1254;1003532;-72
2023/01/25 05:40:23;;;;;;;39.60;25.00;;;;;;;-0.58;80.81;101985.05;103179;1254;139086;-72
2023/01/25 05:42:57;;;;;;;37.90;25.30;;;;;;;-0.58;80.85;101982.81;103402;1256;96424;-72
2023/01/25 05:45:25;;;;;;;36.50;24.70;;;;;;;-0.59;80.78;101984.66;103320;1251;107529;-71
2023/01/25 05:47:56;;;;;;;42.20;26.50;;;;;;;-0.59;80.69;101979.00;103256;1251;139374;-72
2023/01/25 05:50:24;;;;;;;41.40;26.00;;;;;;;-0.63;80.70;101976.81;103279;1251;111127;-71
2023/01/25 05:53:13;;;;;;;42.80;27.40;;;;;;;-0.66;80.79;101974.33;103167;1252;139268;-70
2023/01/25 05:55:41;;;;;;;43.40;27.10;;;;;;;-0.67;80.93;101973.08;103285;1251;96450;-71
2023/01/25 05:58:11;;;;;;;45.70;29.50;;;;;;;-0.66;81.09;101969.70;103088;1256;139097;-71
2023/01/25 06:00:39;;;;;;;44.00;28.00;;;;;;;-0.66;81.05;101967.48;103310;1251;96548;-70
2023/01/25 06:03:06;;;;;;;46.90;30.30;;;;;;;-0.66;81.10;101965.42;103323;1254;111389;-71
2023/01/25 06:05:35;;;;;;;46.70;29.00;;;;;;;-0.67;80.84;101963.85;101702;1257;1003709;-70
2023/01/25 06:08:03;;;;;;;43.80;29.20;;;;;;;-0.71;80.74;101960.59;103469;1251;96453;-70
2023/01/25 06:10:41;;;;;;;47.00;30.20;;;;;;;-0.73;81.04;101957.77;103329;1256;138386;-72
2023/01/25 06:13:08;;;;;;;44.80;28.60;;;;;;;-0.72;81.26;101956.48;103421;1256;96452;-72
2023/01/25 06:15:35;;;;;;;43.80;27.00;;;;;;;-0.72;80.98;101952.38;103511;1254;109081;-71
2023/01/25 06:18:24;;;;;;;43.30;27.20;;;;;;;-0.73;81.12;101951.99;103447;1256;110348;-72
2023/01/25 06:21:12;;;;;;;45.60;29.00;;;;;;;-0.76;80.91;101947.59;103114;1251;97763;-72
2023/01/25 06:23:39;;;;;;;48.70;29.80;;;;;;;-0.77;81.04;101951.96;103346;1251;139936;-71
2023/01/25 06:26:12;;;;;;;45.90;27.60;;;;;;;-0.80;81.09;101956.30;103377;1251;96452;-71
2023/01/25 06:28:40;;;;;;;48.90;29.30;;;;;;;-0.81;81.27;101947.86;103213;1251;138576;-70
2023/01/25 06:31:11;;;;;;;44.20;27.70;;;;;;;-0.81;81.18;101954.21;103317;1251;109472;-71
2023/01/25 06:33:40;;;;;;;46.00;28.20;;;;;;;-0.82;81.32;101960.48;103363;1251;96443;-70
2023/01/25 06:36:12;;;;;;;44.90;27.80;;;;;;;-0.81;81.38;101963.42;103283;1251;138971;-71
2023/01/25 06:38:40;;;;;;;45.90;26.90;;;;;;;-0.80;81.30;101964.84;103579;1251;96537;-72
2023/01/25 06:41:11;;;;;;;38.80;24.70;;;;;;;-0.81;81.26;101956.79;102507;1254;1003325;-72
2023/01/25 06:43:38;;;;;;;43.20;25.70;;;;;;;-0.81;81.19;101952.17;103354;1256;107263;-71
2023/01/25 06:46:08;;;;;;;38.70;24.10;;;;;;;-0.80;81.12;101949.98;103396;1254;138707;-71
2023/01/25 06:48:35;;;;;;;41.00;23.80;;;;;;;-0.81;81.17;101947.39;103473;1251;107310;-71
2023/01/25 06:51:04;;;;;;;40.40;25.20;;;;;;;-0.82;80.85;101948.70;102784;1251;1003541;-70
2023/01/25 06:53:33;;;;;;;40.20;24.80;;;;;;;-0.84;81.03;101948.80;103422;1251;138890;-70
2023/01/25 06:56:02;;;;;;;43.30;25.50;;;;;;;-0.86;80.99;101943.41;102597;1254;1002800;-73
2023/01/25 06:58:31;;;;;;;45.20;26.40;;;;;;;-0.89;80.91;101949.77;103351;1256;138975;-72
2023/01/25 10:59:08;;;;;;;65.80;36.30;;;;;;;-0.42;79.46;101730.23;99873;1292;635706;-80
2023/01/25 11:01:36;;;;;;;63.70;34.90;;;;;;;-0.45;79.29;101737.79;103188;1254;137685;-79
2023/01/25 11:04:21;;;;;;;64.10;35.80;;;;;;;-0.45;79.54;101735.23;102484;1254;1003410;-79
2023/01/25 11:06:51;;;;;;;62.90;36.50;;;;;;;-0.43;79.60;101733.08;103085;1254;94201;-80
2023/01/25 11:09:39;;;;;;;63.00;35.10;;;;;;;-0.41;79.68;101727.71;103463;1254;137980;-81
2023/01/25 11:12:16;;;;;;;64.30;36.10;;;;;;;-0.39;79.64;101721.94;103214;1253;131115;-81
2023/01/25 11:14:43;;;;;;;65.00;37.00;;;;;;;-0.39;79.61;101716.14;103268;1256;137701;-79
2023/01/25 11:17:25;;;;;;;68.90;36.50;;;;;;;-0.40;79.63;101714.23;103260;1251;108764;-82
2023/01/25 11:20:07;;;;;;;61.10;36.00;;;;;;;-0.45;79.35;101711.33;103272;1257;139289;-82
2023/01/25 11:22:34;;;;;;;71.80;38.10;;;;;;;-0.50;79.33;101703.98;103713;1252;106682;-80
2023/01/25 11:25:26;;;;;;;65.00;37.10;;;;;;;-0.52;79.70;101701.34;103451;1252;107028;-81
2023/01/25 11:28:17;;;;;;;67.00;37.70;;;;;;;-0.53;79.66;101690.85;103524;1253;94505;-79
2023/01/25 11:30:45;;;;;;;67.70;38.00;;;;;;;-0.53;79.82;101689.67;103361;1256;108974;-82
2023/01/25 11:33:14;;;;;;;66.90;37.20;;;;;;;-0.54;79.78;101694.05;103231;1252;139138;-81
2023/01/25 11:35:52;;;;;;;69.30;38.80;;;;;;;-0.55;79.90;101689.26;103380;1257;108562;-82
2023/01/25 11:38:23;;;;;;;67.10;37.20;;;;;;;-0.52;80.07;101681.52;103187;1257;139233;-81
2023/01/25 11:40:56;;;;;;;70.10;40.10;;;;;;;-0.49;79.91;101687.61;103303;1256;95495;-82
2023/01/25 11:43:41;;;;;;;68.20;38.30;;;;;;;-0.46;80.10;101686.17;102459;1256;1002727;-82
2023/01/25 11:46:21;;;;;;;66.00;36.90;;;;;;;-0.46;79.60;101679.66;103337;1252;95845;-80
2023/01/25 11:49:12;;;;;;;69.90;38.30;;;;;;;-0.53;79.51;101682.16;103451;1252;107885;-80
2023/01/25 11:51:46;;;;;;;73.70;38.70;;;;;;;-0.54;79.69;101681.77;103607;1252;108581;-81
2023/01/25 11:54:41;;;;;;;69.30;37.70;;;;;;;-0.52;79.97;101677.41;103411;1257;95622;-80
2023/01/25 11:57:25;;;;;;;68.50;37.70;;;;;;;-0.50;79.78;101669.28;102267;1253;1003333;-80
2023/01/25 12:00:05;;;;;;;69.30;39.30;;;;;;;-0.51;79.84;101662.27;103391;1252;95105;-80
2023/01/25 12:03:08;;;;;;;65.80;37.50;;;;;;;-0.49;80.05;101663.35;102433;1252;1002638;-80
2023/01/25 12:05:48;;;;;;;65.30;36.30;;;;;;;-0.47;80.10;101657.59;103582;1252;107249;-80
2023/01/25 12:08:30;;;;;;;66.60;35.70;;;;;;;-0.48;79.84;101645.96;102513;1252;1002869;-80
2023/01/25 12:11:07;;;;;;;60.20;34.40;;;;;;;-0.48;79.63;101641.16;103282;1252;108456;-80
2023/01/25 12:13:46;;;;;;;64.90;36.70;;;;;;;-0.50;79.64;101637.69;103604;1252;138545;-80
2023/01/25 12:16:26;;;;;;;64.60;36.70;;;;;;;-0.53;79.70;101635.52;102568;1256;1002930;-79
2023/01/25 12:19:16;;;;;;;66.40;37.10;;;;;;;-0.52;79.94;101632.84;103307;1252;107271;-83
2023/01/25 12:21:57;;;;;;;64.00;34.40;;;;;;;-0.50;79.81;101626.73;103319;1252;95672;-80
2023/01/25 12:24:38;;;;;;;70.90;37.40;;;;;;;-0.49;79.73;101620.64;103306;1253;109454;-71
2023/01/25 12:27:21;;;;;;;73.00;35.40;;;;;;;-0.51;79.82;101616.11;103397;1253;138229;-81
2023/01/25 12:29:58;;;;;;;69.90;36.60;;;;;;;-0.53;79.87;101612.98;103491;1252;107779;-82
2023/01/25 12:32:34;;;;;;;68.10;36.10;;;;;;;-0.53;79.98;101607.86;103421;1252;138411;-82
2023/01/25 12:35:22;;;;;;;71.80;37.50;;;;;;;-0.53;80.00;101604.59;102946;1252;1003098;-81
2023/01/25 12:37:54;;;;;;;67.20;34.80;;;;;;;-0.52;80.14;101611.14;103613;1252;138317;-81
2023/01/25 12:40:28;;;;;;;68.90;36.30;;;;;;;-0.52;80.09;101607.71;102615;1252;1003300;-81
2023/01/25 12:43:00;;;;;;;64.30;35.30;;;;;;;-0.52;80.12;101607.23;103694;1252;108071;-81
2023/01/25 12:45:31;;;;;;;67.50;36.10;;;;;;;-0.48;80.17;101607.49;103451;1254;138783;-80
2023/01/25 12:48:06;;;;;;;72.10;37.00;;;;;;;-0.47;80.24;101611.98;103505;1252;94416;-80
2023/01/25 12:50:40;;;;;;;69.70;35.10;;;;;;;-0.44;80.28;101610.55;103908;1252;138414;-82
2023/01/25 12:53:19;;;;;;;61.50;34.00;;;;;;;-0.41;80.18;101604.65;103590;1252;95005;-82
2023/01/25 12:55:47;;;;;;;62.90;33.20;;;;;;;-0.43;79.98;101605.80;103687;1252;138018;-84
2023/01/25 12:58:20;;;;;;;63.20;32.30;;;;;;;-0.47;80.03;101604.47;102712;1252;1002921;-76
2023/01/25 13:01:05;;;;;;;62.40;33.30;;;;;;;-0.47;79.99;101607.04;103552;1252;95113;-83
2023/01/25 13:03:47;;;;;;;61.00;33.10;;;;;;;-0.45;80.17;101602.14;103429;1253;138607;-86
2023/01/25 13:06:22;;;;;;;61.10;32.40;;;;;;;-0.42;80.33;101599.65;103342;1252;95071;-84
2023/01/25 13:09:00;;;;;;;59.00;31.80;;;;;;;-0.41;80.21;101596.29;103379;1252;139548;-84
2023/01/25 13:11:33;;;;;;;63.40;31.60;;;;;;;-0.41;80.22;101594.91;104249;1252;108368;-83
2023/01/25 13:14:30;;;;;;;59.10;32.10;;;;;;;-0.40;80.28;101588.29;103356;1252;138213;-84
2023/01/25 13:17:12;;;;;;;61.70;35.10;;;;;;;-0.37;80.46;101582.90;103565;1252;108050;-85
2023/01/25 13:19:42;;;;;;;64.10;34.10;;;;;;;-0.34;80.51;101577.39;103166;1257;138139;-83
2023/01/25 13:22:11;;;;;;;71.10;35.10;;;;;;;-0.30;80.69;101571.02;103474;1256;108528;-84
2023/01/25 13:25:18;;;;;;;63.60;32.90;;;;;;;-0.25;80.68;101568.30;103456;1252;108758;-84
2023/01/25 13:27:45;;;;;;;63.80;34.90;;;;;;;-0.18;80.60;101564.05;103343;1257;95090;-83
2023/01/25 13:30:28;;;;;;;67.10;34.40;;;;;;;-0.15;80.32;101558.89;103440;1252;107078;-84
2023/01/25 13:32:57;;;;;;;61.80;34.00;;;;;;;-0.14;80.17;101553.96;103313;1257;138037;-83
2023/01/25 13:35:31;;;;;;;62.60;34.00;;;;;;;-0.11;80.29;101553.02;103521;1257;107858;-84
2023/01/25 13:38:32;;;;;;;65.50;34.00;;;;;;;-0.11;80.20;101550.14;103375;1256;138812;-85
2023/01/25 13:41:19;;;;;;;62.20;33.70;;;;;;;-0.10;80.09;101548.10;103935;1255;94795;-85
2023/01/25 13:44:08;;;;;;;62.80;32.60;;;;;;;-0.12;79.97;101548.20;103147;1257;138141;-85
2023/01/25 13:46:36;;;;;;;58.90;31.70;;;;;;;-0.14;80.00;101546.62;103308;1257;95111;-84
2023/01/25 13:49:17;;;;;;;62.90;32.40;;;;;;;-0.14;80.01;101543.36;102425;1257;1002825;-85
2023/01/25 13:51:45;;;;;;;64.20;33.30;;;;;;;-0.15;80.20;101535.98;103371;1257;107888;-84
2023/01/25 13:54:17;;;;;;;64.20;33.70;;;;;;;-0.15;80.00;101526.92;103369;1257;95091;-84
2023/01/25 13:56:45;;;;;;;63.00;33.60;;;;;;;-0.17;79.94;101530.27;103493;1252;139093;-81
2023/01/25 13:59:26;;;;;;;61.50;33.00;;;;;;;-0.18;79.99;101523.36;103440;1252;95088;-83
2023/01/25 14:01:55;;;;;;;60.60;31.60;;;;;;;-0.20;79.90;101520.77;103946;1252;138325;-84
2023/01/25 14:04:23;;;;;;;67.70;34.80;;;;;;;-0.19;80.08;101514.61;103581;1257;107557;-82
2023/01/25 14:06:56;;;;;;;63.60;34.20;;;;;;;-0.20;80.04;101511.02;103455;1252;95779;-83
2023/01/25 14:09:24;;;;;;;67.50;33.60;;;;;;;-0.19;80.08;101510.52;103373;1257;139656;-86
2023/01/25 14:11:56;;;;;;;67.70;35.80;;;;;;;-0.20;80.09;101510.83;103361;1253;95637;-86
2023/01/25 14:14:28;;;;;;;61.60;32.40;;;;;;;-0.23;80.17;101509.89;103312;1256;139958;-81
2023/01/25 14:17:17;;;;;;;65.10;35.00;;;;;;;-0.27;80.06;101511.67;103537;1252;106500;-82
2023/01/25 14:19:48;;;;;;;63.80;34.30;;;;;;;-0.26;80.28;101513.04;103524;1252;138615;-84
2023/01/25 14:22:23;;;;;;;66.80;35.10;;;;;;;-0.27;80.19;101511.13;103700;1256;107519;-84
2023/01/25 14:25:07;;;;;;;63.00;34.30;;;;;;;-0.29;80.26;101507.33;102893;1251;1002762;-85
2023/01/25 14:27:34;;;;;;;62.40;32.60;;;;;;;-0.30;80.27;101503.17;103261;1252;138202;-84
2023/01/25 14:30:03;;;;;;;56.80;31.70;;;;;;;-0.33;80.38;101498.67;103342;1253;107974;-79
2023/01/25 14:32:30;;;;;;;57.70;32.10;;;;;;;-0.33;80.48;101495.42;103348;1256;138943;-85
2023/01/25 14:34:57;;;;;;;56.90;31.80;;;;;;;-0.33;80.69;101490.14;103378;1252;106415;-82
2023/01/25 14:37:24;;;;;;;53.80;28.80;;;;;;;-0.32;80.62;101490.48;103249;1252;138434;-82
2023/01/25 14:39:53;;;;;;;51.60;29.10;;;;;;;-0.36;80.51;101488.48;103651;1252;108764;-83
2023/01/25 14:42:20;;;;;;;55.30;29.40;;;;;;;-0.39;80.58;101486.46;103419;1256;107764;-85
2023/01/25 14:44:48;;;;;;;47.00;27.20;;;;;;;-0.40;80.53;101486.27;102545;1252;1003148;-85
2023/01/25 14:47:38;;;;;;;52.60;28.10;;;;;;;-0.41;80.62;101481.96;102617;1256;1003401;-85
2023/01/25 14:50:35;;;;;;;53.80;28.70;;;;;;;-0.43;80.60;101477.13;102335;1257;1002832;-86
2023/01/25 14:53:09;;;;;;;56.00;29.40;;;;;;;-0.48;80.36;101475.27;103167;1253;107618;-84
2023/01/25 14:55:37;;;;;;;49.30;28.60;;;;;;;-0.50;80.43;101470.40;104081;1255;138554;-85
2023/01/25 14:58:04;;;;;;;55.60;30.40;;;;;;;-0.51;80.65;101463.90;103385;1252;95097;-83
2023/01/25 15:00:34;;;;;;;56.90;31.50;;;;;;;-0.53;80.66;101457.86;103395;1252;107653;-85
2023/01/25 15:03:05;;;;;;;61.10;32.10;;;;;;;-0.53;80.82;101460.05;103354;1252;138579;-84
2023/01/25 15:05:34;;;;;;;58.10;34.10;;;;;;;-0.53;80.91;101456.98;103325;1255;108133;-84
2023/01/25 15:08:16;;;;;;;64.20;34.60;;;;;;;-0.54;80.84;101451.48;103558;1252;138441;-84
2023/01/25 15:10:53;;;;;;;64.10;33.80;;;;;;;-0.55;80.81;101448.01;103587;1252;94953;-84
2023/01/25 15:13:24;;;;;;;65.80;34.90;;;;;;;-0.58;81.03;101442.64;102880;1252;1003292;-83
2023/01/25 15:15:58;;;;;;;68.80;35.30;;;;;;;-0.58;80.98;101444.85;103657;1257;95094;-83
2023/01/25 15:18:45;;;;;;;69.40;37.70;;;;;;;-0.60;80.82;101439.67;104155;1252;108578;-82